LTBAORSU

Guest
Details From LTBA - Istanbul Ataturk
To ORSU - Sulaymaniyah Intl
Flight Number -
Tags Generated
Created
Modified
Stats Distance 843 nm / 1,562 km
Max Altitude 0 ft / 0 m
Waypoints 4
Social Downloads 1
Likes 0
Share VATSIM

Download

Looking for another format? Having issues loading an existing format? Contact us
Advertisement - Login to hide

Notes

Generated

Route

LTBA BELSU BUKET ORSU

ID Type Via Altitude Latitude Longitude Leg Dist Tot Dist Heading (true) Name
O LTBA APT - 0 ft / 0 m 40.96559˚ 28.80986˚ - 0 nm - -
BELSU FIX - 0 ft / 0 m 39.13083˚ 34.28639˚ 274 nm 274 nm 112° / 115° -
BUKET FIX - 0 ft / 0 m 37.73800˚ 40.17700˚ 289 nm 564 nm 105° / 109° -
O ORSU APT - 0 ft / 0 m 35.57159˚ 45.30053˚ 278 nm 843 nm 116° / 119° -

Altitude Profile

Advertisement - Login to hide

Weather


0- 5 10 15 20 25 30 35+ Temperature / ° C

Clouds and Precipitation
Forecast for 2017-12-16 06:00 UTC. Updated 38 minutes ago

Ground ~20,000 ft ~40,000 ft Winds

LTBA

Details ICAO LTBA (IST)
Name Istanbul Ataturk
Region Turkey
Timezone Europe/Istanbul (UTC+3.0)
Stats Elevation 163 ft / 50 m (AMSL)
Location 40.979136° 28.812832°
Runways 3
Magnetic Variation 5.429° E

METAR

LTBA 160320Z 19020KT CAVOK 15/10 Q1012 NOSIG

Decode

TAF

Not found

Departure Runways

ID Width Length Bearing (true) Bearing (mag) Surface Threshold Offset Overrun Length
05 197 ft / 60 m 8,514 ft / 2,595 m 58.64° 53.21° Concrete 400 ft / 122 m 197 ft / 60 m
17L 148 ft / 45 m 9,820 ft / 2,993 m 178.48° 173.05° Concrete 0 ft / 0 m 197 ft / 60 m
17R 148 ft / 45 m 9,858 ft / 3,005 m 178.49° 173.06° Concrete 0 ft / 0 m 0 ft / 0 m
23 197 ft / 60 m 8,514 ft / 2,595 m 238.65° 233.22° Concrete 0 ft / 0 m 197 ft / 60 m
35L 148 ft / 45 m 9,858 ft / 3,005 m 358.49° 353.06° Concrete 0 ft / 0 m 200 ft / 61 m
35R 148 ft / 45 m 9,820 ft / 2,993 m 358.48° 353.05° Concrete 0 ft / 0 m 197 ft / 60 m

ORSU

Details ICAO ORSU (ISU)
Name SULAYMANIYAH INTL
Region Iraq
Timezone Asia/Baghdad (UTC+3.0)
Stats Elevation 2,494 ft / 760 m (AMSL)
Location 35.560856° 45.314664°
Runways 1
Magnetic Variation 5.040° E

METAR

ORSU 160300Z 31004KT CAVOK M02/M02 Q1024

Decode

TAF

TAF ORSU 152300Z 1600/1624 32006KT CAVOK BECMG 1604/1606 VRB04KT 8000 NSC BECMG 1610/1612 23008KT CAVOK

Decode

Destination Runways

ID Width Length Bearing (true) Bearing (mag) Surface Threshold Offset Overrun Length
13 148 ft / 45 m 11,482 ft / 3,500 m 133.03° 127.99° Concrete 0 ft / 0 m 200 ft / 61 m
31 148 ft / 45 m 11,482 ft / 3,500 m 313.04° 308.00° Concrete 0 ft / 0 m 200 ft / 61 m

Approach Navaids

Runway Type Ident Frequency Range Bearing (true) Bearing (mag) Slope Elevation
31 Localiser RNJ 111.70 MHz 18 nm / 33 km 313.02° 307.98° - 2,505 ft / 764 m (AMSL)
31 Glidescope RNJ 111.70 MHz 10 nm / 19 km 313.03° 307.99° 3.00° 2,440 ft / 744 m (AMSL)
31 DME RNJ 111.70 MHz 18 nm / 33 km - - - 2,440 ft / 744 m (AMSL)

Popular Alternatives